Time;durP1;ratioP1;P1;durP2;ratioP2;P2;SDS_P1;SDS_P2;PMS_P1;PMS_P2;Temp;Humidity;BMP_temperature;BMP_pressure;BME280_temperature;BME280_humidity;BME280_pressure;Samples;Min_cycle;Max_cycle;Signal;HPM_P1;HPM_P2
2022/01/15 00:01:33;;;;;;;51.75;15.15;;;;;;;0.32;100.00;99430.75;5065467;28;20078;-54
2022/01/15 00:03:58;;;;;;;51.50;15.20;;;;;;;0.32;100.00;99433.31;5065732;28;20147;-53
2022/01/15 00:06:23;;;;;;;55.15;15.60;;;;;;;0.21;100.00;99419.38;5065689;28;20482;-53
2022/01/15 00:08:49;;;;;;;47.65;14.93;;;;;;;0.17;100.00;99424.44;5069453;28;20726;-52
2022/01/15 00:11:14;;;;;;;61.55;17.15;;;;;;;0.48;100.00;99435.41;5066367;28;20426;-52
2022/01/15 00:13:42;;;;;;;43.05;13.75;;;;;;;0.84;100.00;99419.03;5066574;28;20032;-53
2022/01/15 00:21:26;;;;;;;50.10;15.65;;;;;;;0.23;100.00;99410.00;5063714;28;20040;-54
2022/01/15 00:23:52;;;;;;;43.05;15.15;;;;;;;0.49;100.00;99406.31;5068418;28;20081;-53
2022/01/15 00:26:17;;;;;;;45.25;15.30;;;;;;;0.55;100.00;99416.75;5068367;28;20033;-54
2022/01/15 00:28:42;;;;;;;48.15;15.57;;;;;;;0.74;100.00;99401.72;5067462;28;20036;-53
2022/01/15 00:31:08;;;;;;;44.83;15.13;;;;;;;0.52;100.00;99401.25;5066778;28;20041;-55
2022/01/15 00:33:33;;;;;;;41.80;14.73;;;;;;;0.46;100.00;99403.72;5066710;28;20035;-52
2022/01/15 00:35:59;;;;;;;40.50;14.23;;;;;;;0.64;100.00;99398.06;5066518;28;20032;-54
2022/01/15 00:38:24;;;;;;;41.08;14.82;;;;;;;0.43;100.00;99401.06;5071506;28;20876;-52
2022/01/15 00:40:50;;;;;;;52.10;16.17;;;;;;;0.82;100.00;99400.16;5067006;28;20036;-54
2022/01/15 00:43:15;;;;;;;46.42;14.48;;;;;;;0.93;100.00;99395.25;5067374;28;20036;-53
2022/01/15 00:45:41;;;;;;;48.00;15.05;;;;;;;0.94;100.00;99395.28;5068001;28;20052;-54
2022/01/15 00:48:06;;;;;;;47.83;14.77;;;;;;;0.69;100.00;99382.78;5068366;28;20153;-53
2022/01/15 00:50:31;;;;;;;47.72;15.07;;;;;;;0.79;100.00;99383.81;5069137;28;20463;-54
2022/01/15 00:52:57;;;;;;;47.38;16.27;;;;;;;0.79;100.00;99389.84;5067435;28;20020;-54
2022/01/15 00:55:22;;;;;;;44.88;15.07;;;;;;;0.91;100.00;99379.81;5068333;28;20338;-55
2022/01/15 00:57:47;;;;;;;52.65;15.10;;;;;;;0.91;100.00;99377.22;5067252;28;20020;-53
2022/01/15 01:00:17;;;;;;;41.60;14.95;;;;;;;0.62;100.00;99393.75;5068039;28;20024;-52
2022/01/15 01:02:43;;;;;;;49.58;15.48;;;;;;;1.19;100.00;99385.47;5070719;28;20032;-54
2022/01/15 01:05:10;;;;;;;45.08;15.85;;;;;;;0.61;100.00;99382.63;5071976;28;20379;-53
2022/01/15 01:07:35;;;;;;;45.70;15.23;;;;;;;0.70;100.00;99374.22;5074011;28;20017;-54
2022/01/15 01:13:08;;;;;;;43.90;14.75;;;;;;;1.08;100.00;99381.84;5071898;28;20125;-54
2022/01/15 01:21:30;;;;;;;41.92;14.68;;;;;;;1.03;100.00;99383.44;5070973;28;20126;-53
2022/01/15 01:23:48;;;;;;;44.92;15.68;;;;;;;1.12;100.00;99388.75;5073388;28;20113;-54
2022/01/15 01:26:31;;;;;;;44.38;15.32;;;;;;;1.02;100.00;99382.59;5071472;28;20028;-54
2022/01/15 01:29:05;;;;;;;47.15;16.10;;;;;;;0.72;100.00;99380.28;5072029;28;20021;-53
2022/01/15 01:31:51;;;;;;;46.10;15.88;;;;;;;0.90;100.00;99372.94;5069404;28;20037;-52
2022/01/15 01:34:17;;;;;;;44.75;15.95;;;;;;;1.18;100.00;99383.75;5072977;28;20123;-54
2022/01/15 01:37:23;;;;;;;47.97;15.55;;;;;;;1.18;100.00;99378.63;5071240;28;20288;-53
2022/01/15 01:45:09;;;;;;;42.85;14.93;;;;;;;0.93;100.00;99367.84;5071321;28;20032;-54
2022/01/15 01:47:40;;;;;;;44.22;15.25;;;;;;;1.06;100.00;99366.38;5071654;28;20513;-54
2022/01/15 01:50:28;;;;;;;43.95;14.82;;;;;;;1.04;100.00;99364.63;5079747;28;20028;-55
2022/01/15 01:52:56;;;;;;;47.90;15.05;;;;;;;1.17;100.00;99360.59;5069730;28;20513;-53
2022/01/15 01:55:26;;;;;;;44.35;15.77;;;;;;;0.90;100.00;99360.09;5069020;28;20032;-55
2022/01/15 01:57:53;;;;;;;47.45;16.20;;;;;;;1.10;100.00;99354.47;5070429;28;20025;-54
2022/01/15 02:00:20;;;;;;;45.25;15.07;;;;;;;0.85;100.00;99338.59;5071508;28;20050;-54
2022/01/15 02:02:50;;;;;;;44.80;15.20;;;;;;;0.80;100.00;99347.91;5071109;28;20067;-54
2022/01/15 02:05:16;;;;;;;40.95;15.10;;;;;;;0.85;100.00;99351.44;5070138;28;20056;-52
2022/01/15 02:07:43;;;;;;;41.75;15.68;;;;;;;1.07;100.00;99344.16;5067639;28;20051;-53
2022/01/15 02:10:12;;;;;;;46.83;15.55;;;;;;;0.85;100.00;99345.44;5071630;28;20024;-54
2022/01/15 02:12:37;;;;;;;45.83;15.80;;;;;;;1.06;100.00;99347.53;5068724;28;20047;-53
2022/01/15 02:15:20;;;;;;;48.47;16.27;;;;;;;1.00;100.00;99342.28;5072403;28;20620;-53
2022/01/15 02:17:47;;;;;;;44.47;15.10;;;;;;;1.02;100.00;99335.47;5070268;28;20052;-53
2022/01/15 02:26:07;;;;;;;53.25;15.90;;;;;;;1.21;100.00;99332.38;5070384;28;20047;-54
2022/01/15 02:28:37;;;;;;;49.80;14.77;;;;;;;1.06;100.00;99326.97;5069107;28;20591;-53
2022/01/15 02:31:07;;;;;;;54.20;16.00;;;;;;;0.96;100.00;99334.50;5069109;28;20043;-54
2022/01/15 02:33:33;;;;;;;48.75;14.75;;;;;;;1.06;100.00;99332.13;5071465;28;20581;-52
2022/01/15 02:36:00;;;;;;;46.28;15.07;;;;;;;1.22;100.00;99328.13;5070966;28;20127;-52
2022/01/15 02:38:26;;;;;;;53.30;15.60;;;;;;;1.21;100.00;99326.38;5071520;28;20027;-54
2022/01/15 02:40:52;;;;;;;52.50;15.55;;;;;;;0.73;100.00;99334.06;5069310;28;20464;-53
2022/01/15 02:43:21;;;;;;;54.00;15.85;;;;;;;1.04;100.00;99336.38;5069977;28;20564;-52
2022/01/15 02:46:00;;;;;;;48.45;15.27;;;;;;;1.09;100.00;99329.63;5070335;28;20080;-54
2022/01/15 02:48:28;;;;;;;49.20;15.48;;;;;;;1.11;100.00;99333.06;5072311;28;20128;-53
2022/01/15 02:50:55;;;;;;;51.20;16.23;;;;;;;1.34;100.00;99334.34;5071809;28;20032;-54
2022/01/15 02:53:21;;;;;;;45.30;14.38;;;;;;;1.23;100.00;99314.41;5069643;28;20016;-54
2022/01/15 02:55:49;;;;;;;46.53;15.57;;;;;;;1.13;100.00;99313.41;5068796;28;20559;-52
2022/01/15 02:58:16;;;;;;;46.63;15.85;;;;;;;1.25;100.00;99323.91;5071779;28;20720;-54
2022/01/15 03:00:41;;;;;;;47.40;15.75;;;;;;;1.25;100.00;99323.91;5068179;28;20036;-53
2022/01/15 03:03:07;;;;;;;48.08;15.68;;;;;;;1.11;100.00;99310.81;5070468;28;20712;-53
2022/01/15 03:05:33;;;;;;;45.88;15.90;;;;;;;1.42;100.00;99307.91;5069640;28;20035;-54
2022/01/15 03:07:58;;;;;;;43.15;14.82;;;;;;;1.38;100.00;99309.56;5070144;28;20400;-53
2022/01/15 03:10:24;;;;;;;49.72;16.20;;;;;;;1.50;100.00;99298.59;5067782;28;20096;-53
2022/01/15 03:12:49;;;;;;;45.92;16.10;;;;;;;1.21;100.00;99293.81;5069469;28;20896;-53
2022/01/15 03:15:19;;;;;;;48.28;16.48;;;;;;;1.37;100.00;99297.53;5069176;28;20087;-53
2022/01/15 03:17:46;;;;;;;45.72;16.30;;;;;;;1.17;100.00;99297.19;5068417;28;20390;-53
2022/01/15 03:20:13;;;;;;;49.15;15.90;;;;;;;1.22;100.00;99293.00;5068232;28;20027;-52
2022/01/15 03:22:38;;;;;;;42.65;15.88;;;;;;;1.49;100.00;99291.72;5068609;28;20024;-54
2022/01/15 03:25:05;;;;;;;45.38;16.20;;;;;;;1.35;100.00;99289.78;5067587;28;20028;-52
2022/01/15 03:27:30;;;;;;;49.05;15.85;;;;;;;1.31;100.00;99303.44;5068349;28;20364;-53
2022/01/15 03:29:55;;;;;;;47.97;16.13;;;;;;;1.28;100.00;99298.25;5070232;28;20027;-53
2022/01/15 03:32:21;;;;;;;49.00;16.75;;;;;;;1.40;100.00;99307.00;5069687;28;20502;-54
2022/01/15 03:34:47;;;;;;;48.63;15.25;;;;;;;1.40;100.00;99304.41;5068169;28;20118;-53
2022/01/15 03:37:13;;;;;;;46.13;16.23;;;;;;;1.49;100.00;99304.56;5067577;28;20051;-53
2022/01/15 03:39:38;;;;;;;46.53;15.20;;;;;;;1.42;100.00;99300.19;5067162;28;20020;-54
2022/01/15 03:42:11;;;;;;;47.08;15.43;;;;;;;1.27;100.00;99296.53;5069128;28;20443;-53
2022/01/15 03:44:41;;;;;;;49.42;15.90;;;;;;;1.34;100.00;99293.22;5067551;28;20028;-52
2022/01/15 03:47:07;;;;;;;49.50;15.93;;;;;;;1.35;100.00;99300.06;5069000;28;20076;-53
2022/01/15 03:49:32;;;;;;;52.67;15.68;;;;;;;1.41;100.00;99306.16;5066924;28;20016;-52
2022/01/15 03:51:57;;;;;;;51.38;16.35;;;;;;;1.25;100.00;99303.34;5068956;28;20043;-52
2022/01/15 03:54:23;;;;;;;52.95;16.25;;;;;;;1.28;100.00;99303.38;5066814;28;20012;-52
2022/01/15 03:56:48;;;;;;;45.10;15.05;;;;;;;1.54;100.00;99310.66;5069128;28;20038;-52
2022/01/15 03:59:13;;;;;;;42.10;13.10;;;;;;;1.38;100.00;99295.81;5068682;28;20107;-52
2022/01/15 04:01:39;;;;;;;45.15;15.40;;;;;;;1.40;100.00;99300.16;5068717;28;20065;-53
2022/01/15 04:04:04;;;;;;;50.30;15.35;;;;;;;1.19;100.00;99298.09;5068154;28;20111;-52
2022/01/15 04:06:29;;;;;;;41.88;14.63;;;;;;;1.30;100.00;99291.41;5067158;28;21046;-50
2022/01/15 04:08:55;;;;;;;45.80;14.27;;;;;;;1.17;100.00;99299.75;5066367;28;20935;-52
2022/01/15 04:11:20;;;;;;;48.40;14.82;;;;;;;1.37;100.00;99294.97;5069100;28;20562;-53
2022/01/15 04:13:45;;;;;;;48.25;15.68;;;;;;;1.17;100.00;99299.75;5067610;28;20854;-52
2022/01/15 04:16:11;;;;;;;45.38;14.35;;;;;;;1.56;100.00;99308.13;5068805;28;20033;-53
2022/01/15 04:18:40;;;;;;;44.45;14.50;;;;;;;1.24;100.00;99306.75;5068712;28;20031;-52
2022/01/15 04:21:06;;;;;;;44.13;15.18;;;;;;;1.18;100.00;99310.91;5067952;28;20044;-53
2022/01/15 04:23:31;;;;;;;43.78;14.55;;;;;;;1.39;100.00;99305.28;5069367;28;20031;-51
2022/01/15 04:25:56;;;;;;;44.95;15.35;;;;;;;1.18;100.00;99311.78;5067145;28;20050;-53
2022/01/15 04:28:21;;;;;;;46.58;15.55;;;;;;;1.55;100.00;99312.41;5068447;28;20028;-53
2022/01/15 04:30:48;;;;;;;42.60;13.80;;;;;;;1.38;100.00;99308.69;5068073;28;20041;-52
2022/01/15 04:33:14;;;;;;;46.53;14.93;;;;;;;1.47;100.00;99304.56;5068903;28;20039;-53
2022/01/15 04:35:40;;;;;;;46.60;15.43;;;;;;;1.58;100.00;99302.19;5066545;28;20037;-51
2022/01/15 04:38:10;;;;;;;43.08;14.05;;;;;;;1.79;100.00;99301.63;5066474;28;20024;-53
2022/01/15 04:40:35;;;;;;;43.80;14.85;;;;;;;1.58;100.00;99303.88;5067968;28;20067;-53
2022/01/15 04:43:01;;;;;;;45.72;15.05;;;;;;;1.61;100.00;99302.22;5067703;28;20159;-51
2022/01/15 04:45:26;;;;;;;44.00;14.75;;;;;;;1.32;100.00;99300.03;5068050;28;20119;-52
2022/01/15 04:47:51;;;;;;;43.92;14.55;;;;;;;1.52;100.00;99299.50;5067296;28;20118;-52
2022/01/15 04:50:18;;;;;;;48.33;14.93;;;;;;;1.55;100.00;99302.13;5068624;28;20034;-52
2022/01/15 04:52:44;;;;;;;51.33;15.55;;;;;;;1.55;100.00;99307.25;5068463;28;20020;-52
2022/01/15 04:55:10;;;;;;;45.83;14.63;;;;;;;1.23;100.00;99294.75;5065290;28;20185;-52
2022/01/15 04:57:36;;;;;;;47.50;14.75;;;;;;;1.50;100.00;99303.75;5069582;28;20055;-52
2022/01/15 05:00:05;;;;;;;48.85;15.13;;;;;;;1.38;100.00;99298.41;5067344;28;20012;-53
2022/01/15 05:02:31;;;;;;;48.10;14.77;;;;;;;1.40;100.00;99302.75;5067356;28;20042;-52
2022/01/15 05:04:56;;;;;;;44.40;14.95;;;;;;;1.22;100.00;99295.56;5067987;28;20028;-52
2022/01/15 05:07:22;;;;;;;50.17;15.80;;;;;;;1.34;100.00;99297.47;5068790;28;20124;-52
2022/01/15 05:09:48;;;;;;;41.50;14.48;;;;;;;1.28;100.00;99289.66;5067898;28;20099;-53
2022/01/15 05:12:31;;;;;;;43.72;14.95;;;;;;;1.34;100.00;99290.66;5068619;28;20553;-53
2022/01/15 05:14:57;;;;;;;48.83;15.60;;;;;;;1.53;100.00;99288.38;5068982;28;20044;-54
2022/01/15 05:17:22;;;;;;;49.63;14.68;;;;;;;1.43;100.00;99291.63;5067123;28;20441;-52
2022/01/15 05:19:48;;;;;;;44.67;13.52;;;;;;;1.57;100.00;99287.56;5067676;28;20073;-52
2022/01/15 05:22:13;;;;;;;44.10;14.52;;;;;;;1.64;100.00;99281.69;5075395;28;20093;-53
2022/01/15 05:24:39;;;;;;;44.00;15.25;;;;;;;1.18;100.00;99282.63;5067641;28;20124;-52
2022/01/15 05:27:04;;;;;;;42.03;14.85;;;;;;;1.68;100.00;99278.31;5067954;28;20107;-52
2022/01/15 05:29:30;;;;;;;46.03;14.77;;;;;;;1.39;100.00;99282.16;5068981;28;20478;-52
2022/01/15 05:31:55;;;;;;;41.53;14.60;;;;;;;1.47;100.00;99280.53;5066345;28;20413;-52
2022/01/15 05:34:20;;;;;;;45.17;14.63;;;;;;;1.55;100.00;99281.56;5068955;28;20028;-53
2022/01/15 05:36:46;;;;;;;43.72;14.60;;;;;;;1.52;100.00;99278.91;5066783;28;20434;-53
2022/01/15 05:39:12;;;;;;;47.75;15.27;;;;;;;1.19;100.00;99272.38;5067780;28;20043;-51
2022/01/15 05:41:38;;;;;;;46.33;15.38;;;;;;;1.40;100.00;99268.44;5067022;28;20044;-53
2022/01/15 05:44:03;;;;;;;41.13;14.45;;;;;;;1.78;100.00;99271.59;5067846;28;20032;-53
2022/01/15 05:46:30;;;;;;;47.53;15.68;;;;;;;1.28;100.00;99271.69;5067070;28;20067;-52
2022/01/15 05:48:56;;;;;;;45.45;14.52;;;;;;;1.60;100.00;99277.34;5070534;28;20055;-52
2022/01/15 05:51:22;;;;;;;41.22;13.00;;;;;;;1.85;100.00;99275.13;5070476;28;20032;-52
2022/01/15 05:53:47;;;;;;;41.13;14.68;;;;;;;1.48;100.00;99266.84;5069964;28;20628;-52
2022/01/15 05:56:12;;;;;;;47.92;15.88;;;;;;;1.62;100.00;99267.06;5068746;28;20041;-53
2022/01/15 05:58:38;;;;;;;44.13;14.80;;;;;;;1.54;100.00;99266.94;5071356;28;20021;-53
2022/01/15 06:01:03;;;;;;;51.83;15.88;;;;;;;1.67;100.00;99266.31;5069415;28;20123;-53
2022/01/15 06:03:29;;;;;;;43.13;14.27;;;;;;;1.18;100.00;99265.53;5071453;28;20032;-52
2022/01/15 06:05:54;;;;;;;42.65;14.38;;;;;;;1.58;100.00;99266.19;5069534;28;20787;-52
2022/01/15 06:08:19;;;;;;;39.70;14.40;;;;;;;1.40;100.00;99256.47;5070881;28;20069;-51
2022/01/15 06:10:45;;;;;;;43.83;15.10;;;;;;;1.54;100.00;99254.97;5068754;28;20139;-52
2022/01/15 06:13:10;;;;;;;43.60;15.20;;;;;;;1.78;100.00;99258.72;5075347;28;20052;-53
2022/01/15 06:15:35;;;;;;;49.80;14.90;;;;;;;1.77;100.00;99257.00;5067785;28;20032;-52
2022/01/15 06:18:01;;;;;;;41.75;14.65;;;;;;;1.42;100.00;99259.91;5072697;28;20398;-54
2022/01/15 06:20:26;;;;;;;42.33;14.70;;;;;;;1.61;100.00;99255.91;5069720;28;20128;-51
2022/01/15 06:22:51;;;;;;;44.63;14.82;;;;;;;1.82;100.00;99246.78;5071414;28;20580;-52
2022/01/15 06:25:17;;;;;;;53.42;15.52;;;;;;;1.60;100.00;99249.06;5069500;28;20446;-51
2022/01/15 06:27:42;;;;;;;40.78;13.48;;;;;;;1.71;100.00;99244.06;5071086;28;20585;-53
2022/01/15 06:30:08;;;;;;;46.40;16.10;;;;;;;1.64;100.00;99255.97;5070751;28;20033;-54
2022/01/15 06:32:36;;;;;;;40.13;14.88;;;;;;;1.82;100.00;99251.91;5070162;28;20112;-52
2022/01/15 06:35:07;;;;;;;43.67;15.00;;;;;;;1.90;100.00;99252.91;5069633;28;20024;-53
2022/01/15 06:37:33;;;;;;;52.30;16.77;;;;;;;1.52;100.00;99264.34;5069497;28;20087;-52
2022/01/15 06:39:58;;;;;;;56.28;17.73;;;;;;;1.45;100.00;99265.13;5070589;28;20710;-54
2022/01/15 06:42:24;;;;;;;37.05;12.65;;;;;;;1.99;100.00;99260.75;5070149;28;20032;-51
2022/01/15 06:44:49;;;;;;;50.50;15.75;;;;;;;1.44;100.00;99263.38;5072301;28;20101;-51
2022/01/15 06:47:14;;;;;;;51.47;16.42;;;;;;;1.35;100.00;99264.09;5070481;28;20048;-53
2022/01/15 06:49:40;;;;;;;57.60;17.55;;;;;;;1.35;100.00;99269.22;5068255;28;20028;-53
2022/01/15 06:52:05;;;;;;;45.45;16.00;;;;;;;1.80;100.00;99272.50;5069848;28;20029;-53
2022/01/15 06:54:31;;;;;;;43.63;15.85;;;;;;;1.42;100.00;99271.91;5069906;28;20063;-52
2022/01/15 06:56:56;;;;;;;46.05;16.10;;;;;;;1.61;100.00;99265.34;5068070;28;20109;-52
2022/01/15 06:59:22;;;;;;;46.08;15.10;;;;;;;1.55;100.00;99260.97;5070296;28;20070;-51
2022/01/15 07:01:48;;;;;;;43.65;15.52;;;;;;;1.80;100.00;99271.63;5067817;28;20058;-53
2022/01/15 07:04:14;;;;;;;45.85;15.82;;;;;;;1.43;100.00;99265.91;5068239;28;20115;-53
2022/01/15 07:06:39;;;;;;;48.25;14.98;;;;;;;1.71;100.00;99257.78;5068750;28;20032;-52
2022/01/15 07:09:04;;;;;;;43.03;14.40;;;;;;;1.55;100.00;99266.13;5069839;28;20104;-53
2022/01/15 07:11:30;;;;;;;42.15;14.75;;;;;;;1.62;100.00;99256.78;5069967;28;20062;-53
2022/01/15 07:13:55;;;;;;;47.97;15.13;;;;;;;1.62;100.00;99257.66;5070054;28;20036;-52
2022/01/15 07:16:20;;;;;;;40.05;14.85;;;;;;;1.56;100.00;99254.97;5069547;28;20036;-53
2022/01/15 07:18:46;;;;;;;44.40;15.07;;;;;;;1.63;100.00;99259.38;5069640;28;20086;-52
2022/01/15 07:21:12;;;;;;;45.22;15.15;;;;;;;1.66;100.00;99256.84;5066126;28;20583;-54
2022/01/15 07:23:38;;;;;;;42.53;15.50;;;;;;;1.64;100.00;99260.25;5068935;28;20135;-52
2022/01/15 07:26:03;;;;;;;42.78;15.70;;;;;;;1.66;100.00;99259.44;5069586;28;20094;-53
2022/01/15 07:28:30;;;;;;;45.80;15.63;;;;;;;1.95;100.00;99261.56;5070301;28;20020;-51
2022/01/15 07:30:56;;;;;;;52.72;17.65;;;;;;;1.80;100.00;99258.75;5070418;28;20132;-51
2022/01/15 07:33:21;;;;;;;48.83;17.35;;;;;;;1.64;100.00;99255.97;5070741;28;20118;-53
2022/01/15 07:35:47;;;;;;;49.38;15.82;;;;;;;1.75;100.00;99256.13;5069693;28;20123;-54
2022/01/15 07:38:13;;;;;;;47.97;15.40;;;;;;;1.87;100.00;99258.00;5068498;28;20055;-52
2022/01/15 07:40:40;;;;;;;54.33;16.52;;;;;;;2.15;100.00;99253.22;5066195;28;20060;-53
2022/01/15 07:43:05;;;;;;;50.85;17.00;;;;;;;1.90;100.00;99263.19;5069057;28;20016;-52
2022/01/15 07:45:30;;;;;;;48.70;15.48;;;;;;;1.97;100.00;99258.97;5067391;28;20043;-53
2022/01/15 07:47:56;;;;;;;44.25;14.93;;;;;;;2.06;100.00;99252.28;5071106;28;20027;-54
2022/01/15 07:50:24;;;;;;;49.08;16.92;;;;;;;2.04;100.00;99250.50;5068373;28;20017;-52
2022/01/15 07:52:51;;;;;;;44.75;15.63;;;;;;;2.16;100.00;99252.41;5068613;28;20020;-52
2022/01/15 07:55:16;;;;;;;45.42;15.68;;;;;;;1.60;100.00;99251.63;5066152;28;20511;-52
2022/01/15 07:57:43;;;;;;;44.78;15.50;;;;;;;2.09;100.00;99244.56;5065491;28;20021;-54
2022/01/15 08:00:10;;;;;;;48.20;16.77;;;;;;;2.17;100.00;99247.28;5069481;28;20078;-52
2022/01/15 08:02:36;;;;;;;42.80;15.40;;;;;;;1.99;100.00;99237.59;5068335;28;20044;-53
2022/01/15 08:05:01;;;;;;;47.88;14.82;;;;;;;1.78;100.00;99251.00;5067482;28;20028;-53
2022/01/15 08:07:26;;;;;;;44.17;15.68;;;;;;;2.18;100.00;99253.28;5068413;28;20045;-52
2022/01/15 08:09:53;;;;;;;48.25;15.50;;;;;;;2.46;100.00;99244.16;5066132;28;20046;-54
2022/01/15 08:12:19;;;;;;;44.92;15.57;;;;;;;2.34;100.00;99247.47;5064909;28;20032;-53
2022/01/15 08:14:45;;;;;;;44.47;15.85;;;;;;;2.29;100.00;99246.53;5067702;28;20064;-52
2022/01/15 08:17:11;;;;;;;45.17;16.42;;;;;;;2.14;100.00;99247.22;5068951;28;20032;-53
2022/01/15 08:19:36;;;;;;;53.45;20.40;;;;;;;2.25;100.00;99244.78;5069437;28;20031;-53
2022/01/15 08:22:02;;;;;;;49.15;17.25;;;;;;;1.87;100.00;99243.41;5068038;28;20040;-53
2022/01/15 08:24:27;;;;;;;43.65;15.80;;;;;;;2.34;100.00;99232.03;5069840;28;20061;-53
2022/01/15 08:26:52;;;;;;;46.05;15.85;;;;;;;2.09;100.00;99229.13;5067063;28;20069;-53
2022/01/15 08:29:18;;;;;;;45.95;15.23;;;;;;;2.15;100.00;99232.63;5067961;28;20039;-53
2022/01/15 08:31:44;;;;;;;49.33;15.73;;;;;;;2.47;100.00;99239.03;5066772;28;20458;-52
2022/01/15 08:34:09;;;;;;;35.10;13.13;;;;;;;2.76;100.00;99233.34;5082681;28;20028;-52
2022/01/15 08:36:36;;;;;;;45.30;15.27;;;;;;;2.42;100.00;99237.25;5067774;28;20063;-53
2022/01/15 08:39:04;;;;;;;43.53;15.13;;;;;;;2.49;100.00;99237.34;5068058;28;20676;-52
2022/01/15 08:41:30;;;;;;;42.80;15.30;;;;;;;2.38;100.00;99244.09;5068349;28;20039;-55
2022/01/15 08:43:55;;;;;;;41.30;14.88;;;;;;;2.46;100.00;99250.19;5068074;28;20032;-54
2022/01/15 08:46:21;;;;;;;42.72;13.93;;;;;;;2.62;100.00;99234.91;5066456;28;20044;-53
2022/01/15 08:48:47;;;;;;;35.08;14.82;;;;;;;2.59;100.00;99230.59;5068330;28;20128;-52
2022/01/15 08:51:12;;;;;;;42.17;14.55;;;;;;;2.91;100.00;99242.09;5068781;28;20716;-53
2022/01/15 08:53:38;;;;;;;40.15;14.88;;;;;;;2.70;100.00;99238.41;5069011;28;20040;-53
2022/01/15 08:56:04;;;;;;;39.45;14.38;;;;;;;2.94;100.00;99244.66;5066774;28;20045;-54
2022/01/15 08:58:30;;;;;;;38.47;15.13;;;;;;;3.28;100.00;99231.22;5068279;28;20052;-52
2022/01/15 09:00:55;;;;;;;41.83;14.52;;;;;;;2.96;100.00;99236.13;5068084;28;20033;-52
2022/01/15 09:03:24;;;;;;;41.00;15.00;;;;;;;3.09;100.00;99237.09;5069047;28;20031;-54
2022/01/15 09:05:50;;;;;;;40.92;14.52;;;;;;;2.98;100.00;99233.53;5066898;28;20036;-53
2022/01/15 09:08:17;;;;;;;38.65;14.63;;;;;;;3.38;100.00;99234.75;5068110;28;20052;-53
2022/01/15 09:10:43;;;;;;;35.38;14.50;;;;;;;3.32;100.00;99233.84;5069131;28;20108;-53
2022/01/15 09:13:12;;;;;;;36.80;14.57;;;;;;;3.55;100.00;99239.16;5069288;28;20625;-52
2022/01/15 09:15:38;;;;;;;40.25;13.98;;;;;;;3.32;100.00;99244.16;5069145;28;20035;-54
2022/01/15 09:18:04;;;;;;;43.42;14.70;;;;;;;3.36;100.00;99240.75;5068689;28;20513;-54
2022/01/15 09:20:29;;;;;;;34.78;14.38;;;;;;;3.41;100.00;99249.38;5066766;28;20775;-52
2022/01/15 09:22:55;;;;;;;46.92;15.05;;;;;;;3.25;100.00;99241.53;5067538;28;20489;-53
2022/01/15 09:25:21;;;;;;;35.05;13.98;;;;;;;3.62;100.00;99239.22;5071042;28;20621;-54
2022/01/15 09:30:30;;;;;;;41.65;15.07;;;;;;;3.27;100.00;99242.41;5071362;28;20118;-52
2022/01/15 09:32:56;;;;;;;40.95;14.65;;;;;;;2.99;100.00;99250.75;5069353;28;20098;-53
2022/01/15 09:35:25;;;;;;;37.08;14.48;;;;;;;3.49;100.00;99239.97;5069873;28;20156;-53
2022/01/15 09:37:51;;;;;;;35.03;13.18;;;;;;;3.18;100.00;99237.19;5073020;28;20020;-53
2022/01/15 09:40:19;;;;;;;37.97;14.30;;;;;;;3.93;100.00;99229.06;5067341;28;20529;-52
2022/01/15 09:42:47;;;;;;;39.00;14.73;;;;;;;4.26;100.00;99227.50;5067544;28;20061;-54
2022/01/15 09:45:14;;;;;;;38.10;15.27;;;;;;;3.57;100.00;99234.91;5070119;28;20193;-52
2022/01/15 09:47:41;;;;;;;39.85;16.38;;;;;;;4.59;100.00;99233.66;5069500;28;20086;-54
2022/01/15 09:50:13;;;;;;;38.10;15.70;;;;;;;5.22;100.00;99229.47;5069351;28;20036;-54
2022/01/15 09:52:38;;;;;;;35.00;15.00;;;;;;;4.96;100.00;99234.63;5071924;28;20122;-54
2022/01/15 09:55:07;;;;;;;39.45;16.25;;;;;;;4.10;100.00;99230.88;5071067;28;20049;-52
2022/01/15 09:57:34;;;;;;;43.90;16.75;;;;;;;4.61;100.00;99230.25;5068765;28;20058;-54
2022/01/15 10:00:02;;;;;;;37.42;15.50;;;;;;;4.73;100.00;99226.81;5067386;28;20791;-52
2022/01/15 10:02:28;;;;;;;37.50;15.73;;;;;;;5.07;100.00;99228.56;5069906;28;20066;-53
2022/01/15 10:04:53;;;;;;;40.83;16.27;;;;;;;4.47;100.00;99221.56;5071578;28;20054;-52
2022/01/15 10:07:22;;;;;;;42.63;16.80;;;;;;;4.63;100.00;99219.88;5068905;28;20036;-54
2022/01/15 10:09:49;;;;;;;37.47;15.57;;;;;;;4.42;100.00;99225.84;5069445;28;20021;-53
2022/01/15 10:12:35;;;;;;;36.38;14.77;;;;;;;4.94;100.00;99217.34;5071763;28;20151;-52
2022/01/15 10:15:03;;;;;;;38.60;15.63;;;;;;;4.28;100.00;99220.63;5071259;28;20028;-53
2022/01/15 10:17:34;;;;;;;35.35;15.10;;;;;;;5.02;100.00;99223.41;5069460;28;20051;-53
2022/01/15 10:20:06;;;;;;;39.28;16.13;;;;;;;5.03;100.00;99217.38;5072319;28;20028;-52
2022/01/15 10:22:32;;;;;;;39.38;16.25;;;;;;;4.85;100.00;99217.34;5070920;28;20101;-53
2022/01/15 10:25:10;;;;;;;37.63;15.52;;;;;;;4.79;100.00;99218.19;5068475;28;20757;-54
2022/01/15 10:27:40;;;;;;;38.78;15.77;;;;;;;4.88;100.00;99214.78;5068651;28;20052;-56
2022/01/15 10:30:07;;;;;;;38.05;16.15;;;;;;;4.72;100.00;99209.56;5069842;28;20125;-56
2022/01/15 10:32:38;;;;;;;36.10;15.77;;;;;;;4.95;100.00;99206.16;5068279;28;20044;-55
2022/01/15 10:35:16;;;;;;;35.15;14.75;;;;;;;4.85;100.00;99207.00;5068951;28;20556;-56
2022/01/15 10:37:56;;;;;;;32.72;13.63;;;;;;;5.35;100.00;99203.59;5068143;28;20016;-55
2022/01/15 10:40:25;;;;;;;31.60;12.82;;;;;;;5.47;100.00;99202.72;5069683;28;20609;-55
2022/01/15 10:43:00;;;;;;;28.13;11.55;;;;;;;4.97;100.00;99191.50;5071685;28;20028;-54
2022/01/15 10:45:31;;;;;;;30.30;12.15;;;;;;;5.38;100.00;99188.03;5070870;28;20035;-54
2022/01/15 10:48:00;;;;;;;28.55;10.77;;;;;;;5.93;100.00;99193.09;5068424;28;20036;-56
2022/01/15 10:50:35;;;;;;;29.13;12.30;;;;;;;5.87;100.00;99187.09;5084352;28;20028;-55
2022/01/15 10:53:09;;;;;;;25.92;10.70;;;;;;;5.88;100.00;99189.69;5069354;28;20024;-55
2022/01/15 10:55:36;;;;;;;33.65;11.77;;;;;;;7.02;100.00;99194.31;5066928;28;20732;-55
2022/01/15 10:58:07;;;;;;;29.52;12.23;;;;;;;6.23;100.00;99178.38;5065735;28;20020;-58
2022/01/15 11:00:45;;;;;;;30.15;10.70;;;;;;;5.49;100.00;99178.53;5066146;28;20034;-58
2022/01/15 11:03:16;;;;;;;24.50;9.13;;;;;;;5.21;100.00;99173.41;5063069;28;20059;-59
2022/01/15 11:05:42;;;;;;;25.27;9.68;;;;;;;5.89;100.00;99167.22;5066397;28;20052;-59
2022/01/15 11:08:14;;;;;;;18.33;5.07;;;;;;;5.13;100.00;99166.53;5066402;28;20033;-57
2022/01/15 11:10:41;;;;;;;24.58;7.43;;;;;;;5.16;100.00;99159.59;5068501;28;20040;-58
2022/01/15 11:13:10;;;;;;;25.20;7.15;;;;;;;5.39;100.00;99156.16;5063265;28;20044;-59
2022/01/15 11:15:36;;;;;;;25.08;8.32;;;;;;;5.77;100.00;99155.16;5064219;28;20098;-58
2022/01/15 11:18:03;;;;;;;23.33;7.40;;;;;;;5.42;100.00;99153.53;5066413;28;20561;-58
2022/01/15 11:20:31;;;;;;;27.10;8.45;;;;;;;5.15;100.00;99150.13;5065467;28;20104;-56
2022/01/15 11:22:57;;;;;;;25.42;8.32;;;;;;;5.29;100.00;99151.84;5065634;28;20100;-58
2022/01/15 11:25:24;;;;;;;25.60;6.55;;;;;;;5.20;100.00;99143.22;5065327;28;20205;-57
2022/01/15 11:27:50;;;;;;;21.63;6.75;;;;;;;5.27;100.00;99127.69;5067476;28;20020;-57
2022/01/15 11:30:18;;;;;;;21.40;7.40;;;;;;;5.18;100.00;99138.91;5067293;28;20021;-59
2022/01/15 11:32:43;;;;;;;18.58;6.00;;;;;;;5.04;100.00;99126.00;5068011;28;20067;-57
2022/01/15 11:35:10;;;;;;;18.73;6.13;;;;;;;4.92;100.00;99123.41;5067121;28;20071;-59
2022/01/15 11:37:49;;;;;;;18.33;5.90;;;;;;;4.89;100.00;99126.00;5065885;28;20032;-60
2022/01/15 11:40:45;;;;;;;23.85;7.05;;;;;;;4.59;100.00;99117.38;5064649;28;20770;-58
2022/01/15 11:43:25;;;;;;;28.02;7.30;;;;;;;4.33;100.00;99125.94;5065860;28;20139;-58
2022/01/15 11:45:53;;;;;;;20.50;6.78;;;;;;;4.61;100.00;99115.63;5067129;28;20397;-57